createdAt,value
2023-02-28T00:00:40.913Z,103311.94
2023-02-28T00:03:10.095Z,103321.72
2023-02-28T00:05:39.546Z,103314.63
2023-02-28T00:08:08.298Z,103311.03
2023-02-28T00:10:37.259Z,103314.59
2023-02-28T00:13:08.423Z,103319.09
2023-02-28T00:15:41.434Z,103324.41
2023-02-28T00:18:10.420Z,103319.13
2023-02-28T00:20:39.311Z,103314.72
2023-02-28T00:23:08.313Z,103320.06
2023-02-28T00:25:37.840Z,103321.84
2023-02-28T00:28:08.860Z,103318.25
2023-02-28T00:30:37.784Z,103311.22
2023-02-28T00:33:10.818Z,103310.34
2023-02-28T00:35:40.094Z,103317.41
2023-02-28T00:38:11.064Z,103318.28
2023-02-28T00:40:40.002Z,103317.41
2023-02-28T00:43:11.137Z,103314.75
2023-02-28T00:45:39.675Z,103324.53
2023-02-28T00:48:11.458Z,103312.94
2023-02-28T00:50:40.775Z,103312.13
2023-02-28T00:53:19.853Z,103308.53
2023-02-28T00:55:48.800Z,103310.34
2023-02-28T00:58:17.547Z,103311.22
2023-02-28T01:00:50.637Z,103310.31
2023-02-28T01:03:21.911Z,103305.00
2023-02-28T01:05:59.185Z,103305.88
2023-02-28T01:08:29.747Z,103309.41
2023-02-28T01:10:59.197Z,103302.38
2023-02-28T01:13:27.727Z,103304.13
2023-02-28T01:16:00.998Z,103307.72
2023-02-28T01:18:34.106Z,103307.69
2023-02-28T01:21:08.329Z,103297.94
2023-02-28T01:23:39.336Z,103304.16
2023-02-28T01:26:09.550Z,103302.38
2023-02-28T01:28:38.748Z,103302.38
2023-02-28T01:31:11.474Z,103299.72
2023-02-28T01:33:43.416Z,103292.63
2023-02-28T01:36:14.953Z,103289.97
2023-02-28T01:38:44.408Z,103289.06
2023-02-28T01:41:18.822Z,103290.84
2023-02-28T01:43:59.919Z,103289.97
2023-02-28T01:46:28.910Z,103291.75
2023-02-28T01:49:03.737Z,103292.63
2023-02-28T01:51:36.767Z,103282.91
2023-02-28T01:54:08.087Z,103280.22
2023-02-28T01:56:39.152Z,103284.69
2023-02-28T01:59:07.832Z,103282.91
2023-02-28T02:01:37.528Z,103281.09
2023-02-28T02:04:10.505Z,103281.97
2023-02-28T02:06:43.053Z,103269.59
2023-02-28T02:09:12.713Z,103274.88
2023-02-28T02:11:42.955Z,103269.59
2023-02-28T02:14:35.454Z,103266.91
2023-02-28T02:17:18.163Z,103268.69
2023-02-28T02:20:29.488Z,103272.22
2023-02-28T02:23:37.215Z,103262.47
2023-02-28T02:26:19.620Z,103266.91
2023-02-28T02:29:26.265Z,103275.78
2023-02-28T02:32:26.117Z,103268.69
2023-02-28T02:35:04.365Z,103269.56
2023-02-28T02:37:40.488Z,103272.22
2023-02-28T02:40:17.764Z,103263.38
2023-02-28T02:42:53.341Z,103269.56
2023-02-28T02:45:31.868Z,103277.56
2023-02-28T02:48:02.376Z,103282.00
2023-02-28T02:50:36.730Z,103274.00
2023-02-28T02:53:09.081Z,103278.44
2023-02-28T02:55:42.101Z,103274.03
2023-02-28T02:58:14.438Z,103281.09
2023-02-28T03:00:48.901Z,103272.22
2023-02-28T03:03:33.622Z,103269.56
2023-02-28T03:06:05.245Z,103269.59
2023-02-28T03:08:38.239Z,103275.78
2023-02-28T03:11:10.389Z,103282.00
2023-02-28T03:13:54.871Z,103265.13
2023-02-28T03:16:36.719Z,103270.44
2023-02-28T03:19:26.139Z,103266.03
2023-02-28T03:22:09.677Z,103270.44
2023-02-28T03:24:44.994Z,103261.56
2023-02-28T03:27:19.040Z,103261.59
2023-02-28T03:29:55.216Z,103258.00
2023-02-28T03:32:36.432Z,103256.28
2023-02-28T03:35:13.830Z,103261.56
2023-02-28T03:37:47.752Z,103265.13
2023-02-28T03:40:21.094Z,103261.59
2023-02-28T03:42:54.856Z,103275.78
2023-02-28T03:45:26.376Z,103274.91
2023-02-28T03:47:58.866Z,103275.78
2023-02-28T03:50:30.945Z,103281.97
2023-02-28T03:53:05.979Z,103277.56
2023-02-28T03:55:37.301Z,103277.56
2023-02-28T03:58:11.231Z,103279.34
2023-02-28T04:00:47.793Z,103283.75
2023-02-28T04:03:16.987Z,103282.88
2023-02-28T04:05:54.272Z,103273.13
2023-02-28T04:08:26.191Z,103279.34
2023-02-28T04:11:03.330Z,103277.53
2023-02-28T04:13:31.788Z,103275.78
2023-02-28T04:16:03.904Z,103277.53
2023-02-28T04:18:33.881Z,103281.94
2023-02-28T04:21:04.008Z,103278.44
2023-02-28T04:23:35.246Z,103272.22
2023-02-28T04:26:05.053Z,103281.03
2023-02-28T04:28:34.237Z,103279.28
2023-02-28T04:31:06.841Z,103269.53
2023-02-28T04:33:36.872Z,103270.25
2023-02-28T04:36:08.521Z,103273.06
2023-02-28T04:38:43.220Z,103264.03
2023-02-28T04:41:14.351Z,103265.81
2023-02-28T04:43:43.352Z,103272.06
2023-02-28T04:46:14.300Z,103275.50
2023-02-28T04:48:47.220Z,103273.06
2023-02-28T04:51:25.726Z,103276.44
2023-02-28T04:54:22.060Z,103280.69
2023-02-28T05:00:14.188Z,103271.78
2023-02-28T05:02:45.067Z,103258.53
2023-02-28T05:05:21.085Z,103280.72
2023-02-28T05:07:49.856Z,103276.44
2023-02-28T05:10:40.383Z,103277.88
2023-02-28T05:13:09.486Z,103284.69
2023-02-28T05:15:41.272Z,103284.97
2023-02-28T05:47:47.552Z,103292.03
2023-02-28T05:50:24.741Z,103299.34
2023-02-28T05:53:07.954Z,103295.91
2023-02-28T06:01:37.032Z,103299.31
2023-02-28T06:04:34.274Z,103309.63
2023-02-28T06:07:04.465Z,103317.59
2023-02-28T06:09:32.915Z,103304.03
2023-02-28T06:12:02.224Z,103314.38
2023-02-28T06:14:34.746Z,103317.00
2023-02-28T06:17:04.036Z,103303.28
2023-02-28T06:19:34.828Z,103316.28
2023-02-28T06:22:03.431Z,103318.97
2023-02-28T06:24:32.647Z,103311.47
2023-02-28T06:27:06.491Z,103317.72
2023-02-28T06:29:35.421Z,103330.44
2023-02-28T06:32:04.107Z,103320.69
2023-02-28T06:34:35.036Z,103327.47
2023-02-28T06:37:03.618Z,103332.47
2023-02-28T06:39:32.130Z,103336.28
2023-02-28T06:42:00.407Z,103337.06
2023-02-28T06:44:36.284Z,103336.78
2023-02-28T06:47:06.479Z,103342.53
2023-02-28T06:49:37.585Z,103340.66
2023-02-28T06:52:06.303Z,103338.81
2023-02-28T06:54:34.730Z,103342.50
2023-02-28T06:57:03.065Z,103341.44
2023-02-28T06:59:31.578Z,103342.72
2023-02-28T07:02:00.240Z,103352.84
2023-02-28T07:04:28.930Z,103354.44
2023-02-28T07:06:58.921Z,103349.50
2023-02-28T07:09:31.350Z,103367.75
2023-02-28T07:12:01.653Z,103361.16
2023-02-28T07:14:30.040Z,103354.47
2023-02-28T07:16:58.702Z,103359.00
2023-02-28T07:19:26.971Z,103364.97
2023-02-28T07:21:55.225Z,103376.53
2023-02-28T07:24:29.340Z,103369.25
2023-02-28T07:27:00.428Z,103370.75
2023-02-28T07:29:28.886Z,103366.63
2023-02-28T07:31:57.603Z,103376.63
2023-02-28T07:34:27.112Z,103363.53
2023-02-28T07:36:55.954Z,103368.97
2023-02-28T07:39:25.618Z,103362.81
2023-02-28T07:41:53.916Z,103365.66
2023-02-28T07:44:22.215Z,103357.88
2023-02-28T07:46:50.661Z,103364.97
2023-02-28T07:49:19.130Z,103372.75
2023-02-28T07:51:47.472Z,103341.84
2023-02-28T07:54:15.715Z,103362.91
2023-02-28T07:56:47.948Z,103358.84
2023-02-28T07:59:16.613Z,103354.25
2023-02-28T08:01:45.772Z,103339.25
2023-02-28T08:04:14.492Z,103349.31
2023-02-28T08:06:42.821Z,103345.59
2023-02-28T08:09:11.195Z,103349.38
2023-02-28T08:11:39.608Z,103349.53
2023-02-28T08:14:09.309Z,103345.03
2023-02-28T08:16:38.430Z,103346.47
2023-02-28T08:19:06.799Z,103360.97
2023-02-28T08:21:35.105Z,103339.78
2023-02-28T08:24:03.315Z,103367.34
2023-02-28T08:26:32.252Z,103351.56
2023-02-28T08:29:01.758Z,103355.13
2023-02-28T08:31:32.082Z,103356.94
2023-02-28T08:34:01.198Z,103359.72
2023-02-28T08:36:29.717Z,103360.66
2023-02-28T08:38:59.302Z,103354.63
2023-02-28T08:41:28.499Z,103353.75
2023-02-28T08:43:56.989Z,103356.44
2023-02-28T08:46:25.938Z,103355.66
2023-02-28T08:48:57.107Z,103360.09
2023-02-28T08:51:28.508Z,103349.22
2023-02-28T08:53:58.451Z,103359.28
2023-02-28T08:56:27.645Z,103355.69
2023-02-28T08:58:58.593Z,103363.00
2023-02-28T09:01:30.019Z,103365.59
2023-02-28T09:04:00.707Z,103364.78
2023-02-28T09:06:29.830Z,103366.28
2023-02-28T09:09:00.568Z,103373.41
2023-02-28T09:11:29.372Z,103390.53
2023-02-28T09:13:57.890Z,103370.31
2023-02-28T09:16:27.013Z,103385.06
2023-02-28T09:18:55.447Z,103379.06
2023-02-28T09:21:26.231Z,103388.19
2023-02-28T09:23:54.946Z,103376.47
2023-02-28T09:26:25.857Z,103376.44
2023-02-28T09:28:55.661Z,103384.88
2023-02-28T09:31:26.280Z,103378.75
2023-02-28T09:33:57.213Z,103384.34
2023-02-28T09:36:41.836Z,103375.84
2023-02-28T09:39:13.479Z,103378.47
2023-02-28T09:41:49.567Z,103374.88
2023-02-28T09:44:30.186Z,103378.50
2023-02-28T09:47:02.324Z,103385.75
2023-02-28T09:49:37.951Z,103379.44
2023-02-28T09:52:11.660Z,103382.16
2023-02-28T09:54:41.529Z,103383.91
2023-02-28T09:57:16.691Z,103375.91
2023-02-28T09:59:56.486Z,103382.94
2023-02-28T10:02:48.981Z,103369.81
2023-02-28T10:05:19.438Z,103375.91
2023-02-28T10:08:03.152Z,103375.06
2023-02-28T10:10:37.211Z,103371.22
2023-02-28T10:13:10.039Z,103369.50
2023-02-28T10:15:38.656Z,103377.38
2023-02-28T10:18:13.836Z,103382.22
2023-02-28T10:20:43.369Z,103387.22
2023-02-28T10:23:17.349Z,103388.09
2023-02-28T10:25:49.238Z,103380.88
2023-02-28T10:28:20.139Z,103381.16
2023-02-28T10:30:50.506Z,103377.72
2023-02-28T10:33:25.816Z,103382.16
2023-02-28T10:35:55.114Z,103381.34
2023-02-28T10:38:26.296Z,103376.81
2023-02-28T10:41:05.185Z,103368.97
2023-02-28T10:43:34.050Z,103375.19
2023-02-28T10:46:05.527Z,103373.44
2023-02-28T10:48:39.304Z,103367.13
2023-02-28T10:51:09.998Z,103359.19
2023-02-28T10:54:00.663Z,103361.84
2023-02-28T10:56:31.846Z,103355.59
2023-02-28T10:59:02.133Z,103357.38
2023-02-28T11:01:39.918Z,103355.63
2023-02-28T11:04:21.185Z,103345.88
2023-02-28T11:06:50.297Z,103353.81
2023-02-28T11:09:25.721Z,103341.44
2023-02-28T11:11:55.513Z,103339.41
2023-02-28T11:14:27.155Z,103339.13
2023-02-28T11:17:01.085Z,103343.28
2023-02-28T11:19:33.244Z,103337.47
2023-02-28T11:22:04.000Z,103339.47
2023-02-28T11:24:37.153Z,103326.78
2023-02-28T11:27:05.582Z,103335.28
2023-02-28T11:29:35.822Z,103326.28
2023-02-28T11:32:09.694Z,103320.19
2023-02-28T11:34:39.261Z,103321.34
2023-02-28T11:37:13.853Z,103315.59
2023-02-28T11:39:59.740Z,103310.06
2023-02-28T11:42:56.194Z,103311.00
2023-02-28T11:45:39.392Z,103307.03
2023-02-28T11:48:16.116Z,103306.19
2023-02-28T11:51:21.270Z,103304.66
2023-02-28T11:54:19.077Z,103302.53
2023-02-28T11:56:50.440Z,103308.91
2023-02-28T11:59:37.983Z,103297.03
2023-02-28T12:02:22.414Z,103299.34
2023-02-28T12:04:57.871Z,103295.28
2023-02-28T12:07:33.976Z,103298.31
2023-02-28T12:10:09.084Z,103295.34
2023-02-28T12:12:49.118Z,103281.00
2023-02-28T12:15:42.288Z,103281.97
2023-02-28T12:18:26.119Z,103288.50
2023-02-28T12:21:00.533Z,103282.94
2023-02-28T12:23:49.362Z,103285.69
2023-02-28T12:26:21.551Z,103281.31
2023-02-28T12:28:55.449Z,103287.44
2023-02-28T12:31:26.346Z,103275.72
2023-02-28T12:33:57.879Z,103273.50
2023-02-28T12:36:27.578Z,103273.31
2023-02-28T12:38:58.768Z,103277.66
2023-02-28T12:41:35.753Z,103264.31
2023-02-28T12:44:11.191Z,103275.16
2023-02-28T12:46:44.114Z,103264.09
2023-02-28T12:49:19.606Z,103271.69
2023-02-28T12:51:49.046Z,103268.44
2023-02-28T12:54:25.400Z,103258.88
2023-02-28T12:57:01.524Z,103262.06
2023-02-28T12:59:38.998Z,103258.91
2023-02-28T13:02:49.901Z,103254.97
2023-02-28T13:05:48.813Z,103262.03
2023-02-28T13:08:40.061Z,103257.03
2023-02-28T13:11:20.870Z,103258.38
2023-02-28T13:13:50.017Z,103258.63
2023-02-28T13:16:20.234Z,103251.13
2023-02-28T13:18:49.534Z,103251.06
2023-02-28T13:21:25.936Z,103247.69
2023-02-28T13:24:03.926Z,103249.41
2023-02-28T13:27:05.917Z,103245.13
2023-02-28T13:29:36.634Z,103242.13
2023-02-28T13:32:39.726Z,103241.28
2023-02-28T13:35:46.414Z,103245.78
2023-02-28T13:38:39.993Z,103241.94
2023-02-28T13:42:00.170Z,103243.47
2023-02-28T13:44:28.699Z,103235.41
2023-02-28T13:47:23.719Z,103227.13
2023-02-28T13:49:54.238Z,103218.19
2023-02-28T13:52:25.698Z,103228.13
2023-02-28T13:55:19.022Z,103226.31
2023-02-28T13:58:06.516Z,103225.69
2023-02-28T14:00:48.024Z,103229.88
2023-02-28T14:03:30.838Z,103212.06
2023-02-28T14:06:20.402Z,103228.84
2023-02-28T14:08:56.163Z,103220.59
2023-02-28T14:11:33.475Z,103218.34
2023-02-28T14:14:03.042Z,103212.56
2023-02-28T14:16:41.532Z,103206.66
2023-02-28T14:19:15.172Z,103206.97
2023-02-28T14:22:01.030Z,103213.00
2023-02-28T14:24:49.714Z,103203.56
2023-02-28T14:27:31.153Z,103208.03
2023-02-28T14:30:26.908Z,103208.84
2023-02-28T14:33:06.309Z,103209.84
2023-02-28T14:35:48.153Z,103203.59
2023-02-28T14:38:22.648Z,103206.59
2023-02-28T14:40:53.210Z,103210.53
2023-02-28T14:43:23.317Z,103197.19
2023-02-28T14:45:54.150Z,103194.59
2023-02-28T14:48:25.799Z,103199.63
2023-02-28T14:50:56.290Z,103198.84
2023-02-28T14:53:30.731Z,103191.84
2023-02-28T14:55:59.109Z,103197.56
2023-02-28T14:58:29.563Z,103186.59
2023-02-28T15:01:00.133Z,103188.72
2023-02-28T15:03:33.494Z,103189.88
2023-02-28T15:06:03.612Z,103196.41
2023-02-28T15:08:37.320Z,103200.91
2023-02-28T15:11:07.702Z,103195.97
2023-02-28T15:13:40.775Z,103195.09
2023-02-28T15:16:13.074Z,103188.13
2023-02-28T15:18:49.169Z,103187.50
2023-02-28T15:21:19.777Z,103189.59
2023-02-28T15:23:54.004Z,103194.63
2023-02-28T15:26:26.164Z,103194.47
2023-02-28T15:29:00.045Z,103191.59
2023-02-28T15:31:36.158Z,103191.75
2023-02-28T15:34:08.670Z,103187.03
2023-02-28T15:36:38.274Z,103192.28
2023-02-28T15:39:22.597Z,103198.97
2023-02-28T15:41:51.127Z,103195.75
2023-02-28T15:44:27.901Z,103192.78
2023-02-28T15:47:00.837Z,103195.88
2023-02-28T15:49:30.838Z,103170.06
2023-02-28T15:52:01.653Z,103185.63
2023-02-28T15:54:35.998Z,103176.81
2023-02-28T15:57:15.897Z,103187.16
2023-02-28T15:59:52.782Z,103184.63
2023-02-28T16:02:24.978Z,103193.59
2023-02-28T16:05:01.930Z,103193.06
2023-02-28T16:07:31.586Z,103184.13
2023-02-28T16:10:01.794Z,103189.81
2023-02-28T16:12:32.294Z,103192.84
2023-02-28T16:15:04.042Z,103188.53
2023-02-28T16:17:36.319Z,103184.09
2023-02-28T16:20:14.790Z,103193.94
2023-02-28T16:22:44.048Z,103196.56
2023-02-28T16:25:19.913Z,103193.94
2023-02-28T16:27:51.249Z,103201.13
2023-02-28T16:30:23.347Z,103201.53
2023-02-28T16:32:52.542Z,103197.97
2023-02-28T16:35:21.674Z,103196.44
2023-02-28T16:37:53.507Z,103210.00
2023-02-28T16:40:26.441Z,103211.03
2023-02-28T16:42:57.703Z,103209.28
2023-02-28T16:45:27.976Z,103207.56
2023-02-28T16:47:57.219Z,103222.28
2023-02-28T16:50:28.022Z,103222.47
2023-02-28T16:52:56.940Z,103218.06
2023-02-28T16:55:30.264Z,103223.56
2023-02-28T16:58:01.546Z,103215.72
2023-02-28T17:00:31.800Z,103214.84
2023-02-28T17:03:01.346Z,103228.22
2023-02-28T17:05:34.942Z,103231.16
2023-02-28T17:08:03.769Z,103232.09
2023-02-28T17:10:34.054Z,103229.44
2023-02-28T17:13:14.177Z,103224.19
2023-02-28T17:15:43.666Z,103227.78
2023-02-28T17:18:15.869Z,103223.38
2023-02-28T17:20:44.717Z,103233.13
2023-02-28T17:23:12.955Z,103234.91
2023-02-28T17:25:56.407Z,103225.16
2023-02-28T17:28:26.229Z,103246.47
2023-02-28T17:30:54.651Z,103245.59
2023-02-28T17:33:23.122Z,103242.94
2023-02-28T17:35:52.170Z,103242.91
2023-02-28T17:38:24.029Z,103261.56
2023-02-28T17:40:58.316Z,103252.72
2023-02-28T17:43:27.527Z,103254.50
2023-02-28T17:45:55.995Z,103252.72
2023-02-28T17:48:24.245Z,103267.81
2023-02-28T17:50:52.615Z,103267.78
2023-02-28T17:53:24.123Z,103268.69
2023-02-28T17:55:54.019Z,103263.31
2023-02-28T17:58:22.909Z,103254.47
2023-02-28T18:00:55.012Z,103266.88
2023-02-28T18:03:27.654Z,103273.09
2023-02-28T18:05:58.582Z,103269.53
2023-02-28T18:08:26.979Z,103272.19
2023-02-28T18:10:56.765Z,103272.19
2023-02-28T18:13:25.289Z,103274.84
2023-02-28T18:15:53.735Z,103273.94
2023-02-28T18:18:23.055Z,103273.88
2023-02-28T18:20:53.296Z,103283.63
2023-02-28T18:23:22.042Z,103280.03
2023-02-28T18:25:54.364Z,103274.78
2023-02-28T18:28:24.457Z,103286.22
2023-02-28T18:30:57.242Z,103285.38
2023-02-28T18:33:26.019Z,103288.94
2023-02-28T18:35:57.766Z,103280.03
2023-02-28T18:38:26.269Z,103272.94
2023-02-28T18:40:56.842Z,103269.41
2023-02-28T18:43:27.248Z,103280.91
2023-02-28T18:45:55.700Z,103279.13
2023-02-28T18:48:24.391Z,103277.31
2023-02-28T18:50:53.420Z,103273.78
2023-02-28T18:53:22.209Z,103274.59
2023-02-28T18:55:50.667Z,103278.97
2023-02-28T18:58:19.116Z,103273.69
2023-02-28T19:00:50.226Z,103283.38
2023-02-28T19:03:19.038Z,103284.22
2023-02-28T19:05:50.112Z,103278.94
2023-02-28T19:08:19.157Z,103285.09
2023-02-28T19:10:50.707Z,103288.56
2023-02-28T19:13:20.873Z,103276.16
2023-02-28T19:15:53.769Z,103279.63
2023-02-28T19:18:25.487Z,103285.06
2023-02-28T19:20:54.601Z,103281.50
2023-02-28T19:23:24.023Z,103276.97
2023-02-28T19:25:52.726Z,103287.63
2023-02-28T19:28:21.508Z,103274.25
2023-02-28T19:30:53.463Z,103278.72
2023-02-28T19:33:25.330Z,103283.06
2023-02-28T19:35:54.183Z,103283.16
2023-02-28T19:38:26.467Z,103283.16
2023-02-28T19:41:02.458Z,103292.06
2023-02-28T19:43:31.215Z,103294.78
2023-02-28T19:46:02.185Z,103292.84
2023-02-28T19:48:31.198Z,103299.09
2023-02-28T19:51:04.133Z,103292.94
2023-02-28T19:53:35.805Z,103300.09
2023-02-28T19:56:05.163Z,103297.25
2023-02-28T19:58:34.411Z,103307.19
2023-02-28T20:01:10.218Z,103316.09
2023-02-28T20:03:38.721Z,103308.97
2023-02-28T20:06:09.866Z,103309.81
2023-02-28T20:08:39.453Z,103311.66
2023-02-28T20:11:11.746Z,103306.34
2023-02-28T20:13:40.519Z,103307.25
2023-02-28T20:16:12.316Z,103300.13
2023-02-28T20:18:42.695Z,103293.91
2023-02-28T20:21:12.435Z,103287.66
2023-02-28T20:23:41.522Z,103297.44
2023-02-28T20:26:10.353Z,103298.25
2023-02-28T20:28:39.099Z,103292.94
2023-02-28T20:31:14.943Z,103292.00
2023-02-28T20:33:46.663Z,103300.75
2023-02-28T20:36:15.943Z,103291.09
2023-02-28T20:38:44.499Z,103303.50
2023-02-28T20:41:13.461Z,103298.06
2023-02-28T20:43:44.419Z,103309.69
2023-02-28T20:46:14.835Z,103316.72
2023-02-28T20:48:43.389Z,103310.53
2023-02-28T20:51:12.334Z,103315.81
2023-02-28T20:53:40.624Z,103308.75
2023-02-28T20:56:12.792Z,103300.78
2023-02-28T20:58:41.464Z,103308.72
2023-02-28T21:01:16.042Z,103310.41
2023-02-28T21:03:48.981Z,103314.84
2023-02-28T21:06:21.068Z,103324.59
2023-02-28T21:08:50.149Z,103318.38
2023-02-28T21:11:20.174Z,103310.34
2023-02-28T21:13:48.994Z,103319.16
2023-02-28T21:16:19.569Z,103321.75
2023-02-28T21:18:50.007Z,103318.16
2023-02-28T21:21:20.511Z,103313.66
2023-02-28T21:23:49.597Z,103315.38
2023-02-28T21:26:20.534Z,103324.16
2023-02-28T21:28:51.316Z,103322.31
2023-02-28T21:31:20.699Z,103327.56
2023-02-28T21:33:50.417Z,103323.94
2023-02-28T21:36:20.951Z,103308.84
2023-02-28T21:38:51.048Z,103322.88
2023-02-28T21:41:20.928Z,103322.91
2023-02-28T21:43:49.804Z,103325.47
2023-02-28T21:46:19.521Z,103325.44
2023-02-28T21:48:49.248Z,103335.97
2023-02-28T21:51:21.657Z,103329.63
2023-02-28T21:53:50.645Z,103342.88
2023-02-28T21:56:20.963Z,103337.50
2023-02-28T21:58:50.139Z,103334.78
2023-02-28T22:01:21.275Z,103332.78
2023-02-28T22:03:51.789Z,103330.13
2023-02-28T22:06:22.780Z,103337.16
2023-02-28T22:08:53.937Z,103325.59
2023-02-28T22:11:24.338Z,103329.94
2023-02-28T22:13:53.724Z,103336.88
2023-02-28T22:16:22.315Z,103335.81
2023-02-28T22:18:51.014Z,103337.50
2023-02-28T22:21:21.564Z,103344.59
2023-02-28T22:23:50.424Z,103341.91
2023-02-28T22:26:21.063Z,103333.69
2023-02-28T22:28:49.841Z,103332.91
2023-02-28T22:31:20.074Z,103332.88
2023-02-28T22:33:50.103Z,103335.31
2023-02-28T22:36:21.858Z,103337.13
2023-02-28T22:38:51.258Z,103329.00
2023-02-28T22:41:20.697Z,103341.41
2023-02-28T22:43:52.751Z,103343.06
2023-02-28T22:46:21.365Z,103336.88
2023-02-28T22:48:50.455Z,103342.97
2023-02-28T22:51:20.567Z,103351.59
2023-02-28T22:53:51.922Z,103348.78
2023-02-28T22:56:22.020Z,103360.34
2023-02-28T22:58:51.951Z,103351.41
2023-02-28T23:01:22.271Z,103342.53
2023-02-28T23:03:50.981Z,103341.47
2023-02-28T23:06:21.666Z,103344.88
2023-02-28T23:08:51.769Z,103343.84
2023-02-28T23:11:22.439Z,103346.44
2023-02-28T23:13:59.544Z,103354.59
2023-02-28T23:16:30.503Z,103358.09
2023-02-28T23:19:00.439Z,103358.06
2023-02-28T23:21:30.552Z,103352.72
2023-02-28T23:24:02.784Z,103359.00
2023-02-28T23:26:32.814Z,103355.34
2023-02-28T23:29:01.866Z,103360.66
2023-02-28T23:31:31.367Z,103373.88
2023-02-28T23:34:00.772Z,103366.66
2023-02-28T23:36:29.743Z,103362.13
2023-02-28T23:38:58.853Z,103362.88
2023-02-28T23:41:28.807Z,103358.44
2023-02-28T23:43:57.642Z,103354.13
2023-02-28T23:46:27.226Z,103359.41
2023-02-28T23:48:55.855Z,103362.94
2023-02-28T23:51:24.153Z,103367.94
2023-02-28T23:53:53.857Z,103369.69
2023-02-28T23:56:24.349Z,103373.13
2023-02-28T23:58:56.438Z,103359.94
